Time;durP1;ratioP1;P1;durP2;ratioP2;P2;SDS_P1;SDS_P2;PMS_P1;PMS_P2;Temp;Humidity;BMP_temperature;BMP_pressure;BME280_temperature;BME280_humidity;BME280_pressure;Samples;Min_cycle;Max_cycle;Signal;HPM_P1;HPM_P2
2022/03/17 00:02:09;;;;;;;16.17;7.17;;;;;;;-6.72;100.00;101569.25;1663273;86;21061;-69
2022/03/17 00:04:36;;;;;;;15.83;7.47;;;;;;;-6.74;100.00;101574.53;1640881;87;21057;-69
2022/03/17 00:07:05;;;;;;;14.10;7.03;;;;;;;-6.76;100.00;101568.89;1640575;87;21632;-68
2022/03/17 00:09:32;;;;;;;16.67;7.67;;;;;;;-6.79;100.00;101579.45;1641078;87;21602;-69
2022/03/17 00:12:00;;;;;;;17.33;7.87;;;;;;;-6.83;100.00;101569.42;1643590;87;21097;-68
2022/03/17 00:14:28;;;;;;;18.13;7.50;;;;;;;-6.85;100.00;101565.95;1641137;87;21514;-68
2022/03/17 00:16:55;;;;;;;16.00;7.33;;;;;;;-6.87;100.00;101565.97;1656232;86;21613;-69
2022/03/17 00:19:22;;;;;;;17.57;7.90;;;;;;;-6.88;100.00;101568.16;1600351;88;21083;-70
2022/03/17 00:21:49;;;;;;;15.37;7.37;;;;;;;-6.88;100.00;101564.67;1666014;86;21604;-69
2022/03/17 00:24:17;;;;;;;13.47;7.10;;;;;;;-6.90;100.00;101563.38;1621971;88;21138;-69
2022/03/17 00:26:46;;;;;;;17.90;7.60;;;;;;;-6.92;100.00;101566.93;1664072;86;21084;-69
2022/03/17 00:29:13;;;;;;;14.60;7.30;;;;;;;-6.92;100.00;101570.42;1655724;87;21069;-68
2022/03/17 00:31:41;;;;;;;13.47;7.17;;;;;;;-6.94;100.00;101561.69;1595156;89;21052;-68
2022/03/17 00:34:08;;;;;;;17.70;7.60;;;;;;;-6.95;100.00;101565.20;1673673;84;21068;-69
2022/03/17 00:36:35;;;;;;;17.23;7.53;;;;;;;-6.96;100.00;101565.22;1676901;84;21029;-68
2022/03/17 00:39:05;;;;;;;14.07;7.23;;;;;;;-6.98;100.00;101561.75;1645603;86;21562;-69
2022/03/17 00:41:32;;;;;;;16.60;7.27;;;;;;;-7.01;100.00;101559.15;1701955;84;21009;-70
2022/03/17 00:43:59;;;;;;;14.27;7.03;;;;;;;-7.04;100.00;101562.70;1669793;86;21042;-69
2022/03/17 00:46:27;;;;;;;15.17;7.63;;;;;;;-7.06;100.00;101563.18;1701567;84;21112;-70
2022/03/17 00:48:55;;;;;;;17.37;7.37;;;;;;;-7.08;100.00;101564.52;1669952;86;21078;-69
2022/03/17 00:51:22;;;;;;;16.70;7.33;;;;;;;-7.10;100.00;101566.30;1701736;84;21053;-69
2022/03/17 00:53:49;;;;;;;14.93;7.37;;;;;;;-7.12;100.00;101563.25;1645609;86;21026;-69
2022/03/17 00:56:17;;;;;;;15.33;7.30;;;;;;;-7.15;100.00;101558.91;1677821;84;21049;-68
2022/03/17 00:58:48;;;;;;;16.37;7.10;;;;;;;-7.16;100.00;101559.80;1669776;86;21038;-68
2022/03/17 01:01:16;;;;;;;17.20;7.20;;;;;;;-7.15;100.00;101555.39;1677682;84;21533;-67
2022/03/17 01:03:44;;;;;;;17.33;6.97;;;;;;;-7.15;100.00;101555.39;1669947;86;21603;-69
2022/03/17 01:06:11;;;;;;;13.90;7.07;;;;;;;-7.15;100.00;101557.60;1677854;84;21459;-69
2022/03/17 01:08:38;;;;;;;14.40;7.07;;;;;;;-7.15;100.00;101565.91;1669887;86;21054;-68
2022/03/17 01:11:05;;;;;;;14.90;7.10;;;;;;;-7.17;100.00;101566.38;1677700;84;21013;-68
2022/03/17 01:13:34;;;;;;;16.63;7.00;;;;;;;-7.20;100.00;101559.42;1645742;86;21034;-68
2022/03/17 01:16:01;;;;;;;16.13;7.33;;;;;;;-7.21;100.00;101566.02;1677642;84;21538;-70
2022/03/17 01:18:28;;;;;;;17.27;7.50;;;;;;;-7.22;100.00;101565.57;1669614;86;21105;-69
2022/03/17 01:20:57;;;;;;;13.57;7.00;;;;;;;-7.23;100.00;101571.73;1701651;84;21562;-68
2022/03/17 01:23:26;;;;;;;16.93;7.07;;;;;;;-7.29;100.00;101565.67;1669894;86;21070;-68
2022/03/17 01:25:53;;;;;;;15.87;7.40;;;;;;;-7.31;100.00;101564.83;1701531;84;21641;-70
2022/03/17 01:28:20;;;;;;;16.63;7.53;;;;;;;-7.31;100.00;101559.98;1669286;86;21054;-70
2022/03/17 01:30:48;;;;;;;16.50;7.97;;;;;;;-7.32;100.00;101553.88;1667546;86;21058;-68
2022/03/17 01:33:16;;;;;;;16.90;7.97;;;;;;;-7.32;100.00;101548.61;1682150;85;21156;-69
2022/03/17 01:35:44;;;;;;;14.93;7.10;;;;;;;-7.32;100.00;101551.70;1679377;85;21108;-70
2022/03/17 01:38:11;;;;;;;15.73;7.37;;;;;;;-7.35;100.00;101551.73;1679389;85;21090;-71
2022/03/17 01:40:39;;;;;;;14.97;7.00;;;;;;;-7.35;100.00;101557.84;1679248;85;21054;-70
2022/03/17 01:43:05;;;;;;;16.40;7.80;;;;;;;-7.36;100.00;101554.81;1651103;85;21070;-70
2022/03/17 01:45:34;;;;;;;15.93;7.13;;;;;;;-7.37;100.00;101551.75;1679278;85;21146;-69
2022/03/17 01:48:01;;;;;;;15.13;7.43;;;;;;;-7.39;100.00;101554.84;1679600;85;21503;-68
2022/03/17 01:50:29;;;;;;;17.07;7.30;;;;;;;-7.43;100.00;101553.16;1651034;85;21038;-68
2022/03/17 01:52:57;;;;;;;15.17;7.23;;;;;;;-7.42;100.00;101557.95;1679480;85;21124;-69
2022/03/17 01:55:30;;;;;;;16.43;7.57;;;;;;;-7.43;100.00;101554.92;1679291;85;21109;-70
2022/03/17 01:58:00;;;;;;;18.57;8.07;;;;;;;-7.47;100.00;101547.07;1679692;85;21033;-71
2022/03/17 02:00:27;;;;;;;17.27;8.20;;;;;;;-7.47;100.00;101551.44;1680611;85;21068;-68
2022/03/17 02:02:55;;;;;;;17.07;7.77;;;;;;;-7.50;100.00;101552.36;1652048;85;21077;-69
2022/03/17 02:05:23;;;;;;;15.87;7.50;;;;;;;-7.53;100.00;101557.64;1650830;85;21081;-70
2022/03/17 02:07:52;;;;;;;14.00;6.90;;;;;;;-7.51;100.00;101561.11;1679168;85;21065;-70
2022/03/17 02:10:22;;;;;;;14.83;7.03;;;;;;;-7.54;100.00;101560.28;1679521;85;21045;-69
2022/03/17 02:13:09;;;;;;;16.47;7.23;;;;;;;-7.58;100.00;101563.39;1679265;85;21084;-69
2022/03/17 02:15:38;;;;;;;16.13;7.37;;;;;;;-7.58;100.00;101562.08;1676284;85;21085;-69
2022/03/17 02:18:06;;;;;;;15.73;7.43;;;;;;;-7.60;100.00;101563.00;1647049;87;21074;-69
2022/03/17 02:20:36;;;;;;;14.17;7.27;;;;;;;-7.63;100.00;101559.98;1708201;83;21543;-69
2022/03/17 02:25:57;;;;;;;14.33;7.30;;;;;;;-7.62;100.00;101567.41;1661224;85;21044;-69
2022/03/17 02:28:26;;;;;;;16.47;7.73;;;;;;;-7.63;100.00;101571.80;1672256;84;21551;-69
2022/03/17 02:30:54;;;;;;;15.50;7.73;;;;;;;-7.65;100.00;101566.98;1705126;84;21054;-69
2022/03/17 02:33:23;;;;;;;15.83;7.23;;;;;;;-7.68;100.00;101573.16;1705098;84;21003;-68
2022/03/17 02:35:51;;;;;;;15.00;7.30;;;;;;;-7.69;100.00;101575.80;1679886;84;21102;-69
2022/03/17 02:38:19;;;;;;;14.63;7.27;;;;;;;-7.70;100.00;101578.87;1705193;84;21564;-68
2022/03/17 02:40:52;;;;;;;15.53;7.70;;;;;;;-7.72;100.00;101578.45;1705090;84;21556;-69
2022/03/17 02:43:21;;;;;;;15.08;7.47;;;;;;;-7.75;100.00;101569.31;1705212;84;21069;-70
2022/03/17 02:45:48;;;;;;;16.30;6.87;;;;;;;-7.78;100.00;101577.22;1704995;84;21058;-68
2022/03/17 02:48:16;;;;;;;17.57;7.50;;;;;;;-7.82;100.00;101571.12;1705091;84;21059;-69
2022/03/17 02:50:45;;;;;;;15.83;7.63;;;;;;;-7.82;100.00;101572.44;1679604;84;21039;-69
2022/03/17 02:53:15;;;;;;;16.60;7.73;;;;;;;-7.82;100.00;101575.92;1680380;84;21012;-69
2022/03/17 02:55:43;;;;;;;25.13;11.17;;;;;;;-7.80;100.00;101579.00;1705100;84;21095;-70
2022/03/17 02:58:11;;;;;;;21.87;9.80;;;;;;;-7.82;100.00;101569.81;1728938;83;21046;-69
2022/03/17 03:00:39;;;;;;;23.20;10.10;;;;;;;-7.84;100.00;101572.91;1705226;84;21095;-69
2022/03/17 03:03:06;;;;;;;25.73;11.80;;;;;;;-7.87;100.00;101568.54;1705072;84;21019;-68
2022/03/17 03:05:33;;;;;;;20.87;9.53;;;;;;;-7.89;100.00;101557.19;1705016;84;21055;-69
2022/03/17 03:08:02;;;;;;;17.97;8.20;;;;;;;-7.90;100.00;101552.81;1705074;84;21520;-70
2022/03/17 03:10:31;;;;;;;16.77;8.07;;;;;;;-7.90;100.00;101556.75;1705070;84;21604;-69
2022/03/17 03:12:58;;;;;;;18.07;8.07;;;;;;;-7.92;100.00;101551.96;1705083;84;21051;-69
2022/03/17 03:15:25;;;;;;;17.07;7.87;;;;;;;-7.94;100.00;101556.36;1679845;84;21098;-69
2022/03/17 03:17:54;;;;;;;18.80;8.53;;;;;;;-7.95;100.00;101546.77;1676329;86;21027;-69
2022/03/17 03:20:21;;;;;;;16.67;8.43;;;;;;;-7.94;100.00;101545.00;1676313;85;21548;-70
2022/03/17 03:22:49;;;;;;;17.80;8.23;;;;;;;-7.95;100.00;101553.33;1673646;86;21019;-68
2022/03/17 03:25:17;;;;;;;17.23;8.23;;;;;;;-7.95;100.00;101552.44;1676485;86;21157;-68
2022/03/17 03:27:45;;;;;;;18.13;8.30;;;;;;;-7.96;100.00;101555.97;1671548;85;21059;-69
2022/03/17 03:30:14;;;;;;;20.30;8.10;;;;;;;-7.98;100.00;101549.42;1656478;86;21145;-69
2022/03/17 03:32:47;;;;;;;20.03;8.50;;;;;;;-7.99;100.00;101558.62;1656567;87;21103;-69
2022/03/17 03:38:01;;;;;;;16.23;7.73;;;;;;;-8.06;100.00;101557.35;1656620;86;21593;-70
2022/03/17 03:40:30;;;;;;;18.60;8.40;;;;;;;-8.08;100.00;101566.14;1656501;87;21044;-69
2022/03/17 03:42:58;;;;;;;21.20;8.50;;;;;;;-8.13;100.00;101560.92;1656613;86;21115;-69
2022/03/17 03:45:26;;;;;;;18.63;7.60;;;;;;;-8.16;100.00;101568.85;1659812;86;21102;-70
2022/03/17 03:47:53;;;;;;;16.80;7.57;;;;;;;-8.16;100.00;101562.30;1657744;86;21071;-67
2022/03/17 03:50:21;;;;;;;18.77;7.63;;;;;;;-8.16;100.00;101562.71;1660664;86;21091;-68
2022/03/17 03:52:50;;;;;;;14.87;7.37;;;;;;;-8.17;100.00;101568.41;1656479;86;21087;-69
2022/03/17 03:55:17;;;;;;;17.37;7.50;;;;;;;-8.18;100.00;101565.34;1656625;87;21544;-69
2022/03/17 03:57:46;;;;;;;16.90;7.83;;;;;;;-8.18;100.00;101567.97;1660026;86;21102;-69
2022/03/17 04:02:52;;;;;;;19.27;8.17;;;;;;;-8.19;100.00;101564.94;1590400;89;21134;-69
2022/03/17 04:07:56;;;;;;;17.10;7.40;;;;;;;-8.21;100.00;101571.51;1609973;89;21086;-69
2022/03/17 04:10:25;;;;;;;14.60;7.60;;;;;;;-8.22;100.00;101569.75;1610194;89;21046;-69
2022/03/17 04:12:51;;;;;;;16.33;7.60;;;;;;;-8.23;100.00;101581.16;1610194;89;21073;-69
2022/03/17 04:15:19;;;;;;;17.30;7.40;;;;;;;-8.22;100.00;101577.62;1612102;89;21562;-70
2022/03/17 04:17:49;;;;;;;15.80;7.17;;;;;;;-8.21;100.00;101584.63;1628153;88;21035;-69
2022/03/17 04:20:16;;;;;;;15.80;7.20;;;;;;;-8.22;100.00;101584.19;1606975;88;21106;-70
2022/03/17 04:22:44;;;;;;;14.73;7.10;;;;;;;-8.23;100.00;101590.34;1628609;88;21078;-70
2022/03/17 04:25:12;;;;;;;17.23;7.63;;;;;;;-8.21;100.00;101585.08;1628212;88;21122;-69
2022/03/17 04:27:41;;;;;;;17.10;8.27;;;;;;;-8.19;100.00;101583.31;1628444;88;21058;-69
2022/03/17 04:30:09;;;;;;;17.80;8.10;;;;;;;-8.15;100.00;101587.64;1628518;88;21134;-70
2022/03/17 04:32:36;;;;;;;15.83;7.70;;;;;;;-8.13;100.00;101587.62;1628383;88;21122;-70
2022/03/17 04:35:06;;;;;;;14.87;7.33;;;;;;;-8.12;100.00;101593.31;1628436;88;21607;-70
2022/03/17 04:37:35;;;;;;;16.97;7.67;;;;;;;-8.12;100.00;101594.62;1628418;88;21058;-69
2022/03/17 04:40:05;;;;;;;25.37;14.60;;;;;;;-8.11;100.00;101593.73;1630319;88;21102;-69
2022/03/17 04:42:32;;;;;;;23.97;11.90;;;;;;;-8.08;100.00;101598.50;1638267;86;21120;-68
2022/03/17 04:45:00;;;;;;;28.00;15.30;;;;;;;-8.06;100.00;101587.54;1666059;86;21627;-69
2022/03/17 04:47:27;;;;;;;19.60;10.67;;;;;;;-8.03;100.00;101592.77;1665980;85;21147;-70
2022/03/17 04:49:54;;;;;;;24.40;12.50;;;;;;;-7.98;100.00;101594.47;1642595;86;21022;-69
2022/03/17 04:55:09;;;;;;;22.07;8.60;;;;;;;-7.90;100.00;101600.53;1590485;90;21082;-70
2022/03/17 04:57:38;;;;;;;17.90;8.30;;;;;;;-7.84;100.00;101593.91;1590571;90;21113;-69
2022/03/17 05:00:06;;;;;;;17.40;7.47;;;;;;;-7.83;100.00;101605.69;1590860;89;21061;-69
2022/03/17 05:02:35;;;;;;;15.07;7.47;;;;;;;-7.80;100.00;101598.23;1590507;90;21121;-69
2022/03/17 05:05:03;;;;;;;17.37;7.80;;;;;;;-7.76;100.00;101611.75;1612589;89;21050;-69
2022/03/17 05:07:31;;;;;;;21.70;7.70;;;;;;;-7.72;100.00;101613.48;1586873;90;21123;-68
2022/03/17 05:09:59;;;;;;;20.87;9.50;;;;;;;-7.66;100.00;101616.03;1617203;89;21085;-68
2022/03/17 05:12:27;;;;;;;20.40;9.20;;;;;;;-7.58;100.00;101603.25;1586780;90;21550;-70
2022/03/17 05:14:55;;;;;;;17.00;8.57;;;;;;;-7.51;100.00;101608.86;1617126;89;21634;-69
2022/03/17 05:17:22;;;;;;;18.53;8.30;;;;;;;-7.43;100.00;101613.59;1613056;89;21057;-69
2022/03/17 05:19:51;;;;;;;17.53;8.57;;;;;;;-7.36;100.00;101616.58;1612127;89;21220;-68
2022/03/17 05:22:18;;;;;;;17.20;7.57;;;;;;;-7.25;100.00;101622.55;1612438;89;21301;-69
2022/03/17 05:24:45;;;;;;;16.30;7.87;;;;;;;-7.19;100.00;101626.86;1612280;89;21041;-69
2022/03/17 05:27:13;;;;;;;23.80;8.97;;;;;;;-7.14;100.00;101632.08;1664873;86;21070;-70
2022/03/17 05:29:40;;;;;;;17.93;8.27;;;;;;;-7.09;100.00;101638.15;1629292;88;21043;-70
2022/03/17 05:32:09;;;;;;;18.73;8.10;;;;;;;-7.06;100.00;101635.03;1645542;87;21117;-69
2022/03/17 05:34:36;;;;;;;15.80;7.13;;;;;;;-7.04;100.00;101634.16;1638673;88;21117;-70
2022/03/17 05:37:04;;;;;;;18.17;7.47;;;;;;;-6.97;100.00;101628.78;1646373;86;21045;-69
2022/03/17 05:39:31;;;;;;;23.13;10.50;;;;;;;-6.88;100.00;101639.17;1638018;88;21066;-69
2022/03/17 05:41:58;;;;;;;16.63;7.67;;;;;;;-6.79;100.00;101634.23;1617971;87;21057;-70
2022/03/17 05:44:25;;;;;;;18.23;8.50;;;;;;;-6.70;100.00;101631.47;1622639;88;21061;-70
2022/03/17 05:46:54;;;;;;;19.83;8.10;;;;;;;-6.63;100.00;101639.28;1622464;88;21590;-68
2022/03/17 05:49:21;;;;;;;18.20;7.83;;;;;;;-6.56;100.00;101645.74;1622476;88;21081;-69
2022/03/17 05:51:50;;;;;;;33.10;16.10;;;;;;;-6.43;100.00;101642.92;1618215;88;21081;-71
2022/03/17 05:54:17;;;;;;;29.77;12.30;;;;;;;-6.27;100.00;101644.41;1622456;88;21069;-70
2022/03/17 05:56:44;;;;;;;65.50;27.30;;;;;;;-6.08;100.00;101639.73;1617854;88;21105;-70
2022/03/17 05:59:12;;;;;;;36.47;15.77;;;;;;;-5.88;100.00;101639.34;1618167;88;21559;-68
2022/03/17 06:01:39;;;;;;;29.60;13.37;;;;;;;-5.69;100.00;101644.30;1622645;88;21081;-69
2022/03/17 06:04:06;;;;;;;23.20;10.67;;;;;;;-5.55;100.00;101643.13;1622492;88;21911;-70
2022/03/17 06:06:33;;;;;;;31.03;19.00;;;;;;;-5.40;100.00;101644.63;1671534;86;21054;-69
2022/03/17 06:09:02;;;;;;;24.57;15.17;;;;;;;-5.24;100.00;101645.61;1693533;84;21539;-69
2022/03/17 06:11:30;;;;;;;24.70;11.70;;;;;;;-5.19;100.00;101649.92;1645565;87;21057;-70
2022/03/17 06:13:59;;;;;;;29.07;13.43;;;;;;;-5.17;100.00;101649.86;1652439;87;21106;-68
2022/03/17 06:16:26;;;;;;;22.10;11.80;;;;;;;-5.12;100.00;101655.06;1645785;87;21022;-69
2022/03/17 06:18:53;;;;;;;23.73;11.37;;;;;;;-5.08;100.00;101657.61;1638628;88;21119;-69
2022/03/17 06:21:20;;;;;;;25.37;12.00;;;;;;;-5.02;100.00;101660.57;1608447;89;21071;-69
2022/03/17 06:23:47;;;;;;;23.50;11.20;;;;;;;-4.83;100.00;101657.09;1630218;88;21149;-67
2022/03/17 06:26:15;;;;;;;22.63;10.73;;;;;;;-4.59;100.00;101656.98;1622684;88;21145;-70
2022/03/17 06:28:43;;;;;;;25.83;13.20;;;;;;;-4.32;100.00;101659.89;1670814;86;21093;-70
2022/03/17 06:31:13;;;;;;;44.37;18.50;;;;;;;-4.10;100.00;101653.19;1642429;86;21109;-70
2022/03/17 06:33:40;;;;;;;35.97;15.60;;;;;;;-3.85;100.00;101649.47;1675775;85;21551;-73
2022/03/17 06:36:07;;;;;;;27.60;13.40;;;;;;;-3.63;100.00;101651.55;1612824;89;21092;-71
2022/03/17 06:38:34;;;;;;;37.47;20.97;;;;;;;-3.47;100.00;101651.57;1593826;88;21094;-70
2022/03/17 06:41:02;;;;;;;46.77;25.60;;;;;;;-3.34;100.00;101652.56;1685088;83;21806;-71
2022/03/17 06:43:30;;;;;;;28.63;15.30;;;;;;;-3.32;100.00;101655.56;1681681;85;21015;-72
2022/03/17 06:45:57;;;;;;;34.17;16.90;;;;;;;-3.29;100.00;101658.13;1636358;85;21083;-70
2022/03/17 06:48:24;;;;;;;35.57;17.70;;;;;;;-3.18;100.00;101660.94;1656952;85;21017;-69
2022/03/17 06:50:51;;;;;;;30.60;15.43;;;;;;;-3.09;100.00;101656.70;1654562;85;21043;-70
2022/03/17 06:53:18;;;;;;;25.33;10.40;;;;;;;-3.04;100.00;101657.90;1658287;86;21053;-72
2022/03/17 06:55:47;;;;;;;34.90;17.23;;;;;;;-3.00;100.00;101650.27;1679297;85;21089;-70
2022/03/17 06:58:14;;;;;;;32.83;16.47;;;;;;;-3.07;100.00;101654.41;1642362;85;21067;-70
2022/03/17 07:00:42;;;;;;;21.20;10.10;;;;;;;-3.03;100.00;101663.13;1664818;85;21056;-69
2022/03/17 07:03:09;;;;;;;25.60;9.93;;;;;;;-2.97;100.00;101658.13;1662681;85;21095;-71
2022/03/17 07:05:38;;;;;;;48.40;20.53;;;;;;;-2.93;100.00;101650.50;1677260;84;21579;-70
2022/03/17 07:08:05;;;;;;;36.93;18.87;;;;;;;-2.83;100.00;101652.41;1632379;87;21051;-70
2022/03/17 07:10:33;;;;;;;23.97;8.93;;;;;;;-2.71;100.00;101650.71;1669251;85;21102;-69
2022/03/17 07:13:01;;;;;;;30.53;10.60;;;;;;;-2.57;100.00;101647.64;1670987;85;21509;-71
2022/03/17 07:15:29;;;;;;;34.07;13.93;;;;;;;-2.47;100.00;101649.56;1666371;83;21584;-69
2022/03/17 07:17:56;;;;;;;52.93;17.30;;;;;;;-2.47;100.00;101639.83;1671501;83;21125;-69
2022/03/17 07:20:23;;;;;;;21.97;10.57;;;;;;;-2.50;100.00;101647.42;1647507;85;21052;-69
2022/03/17 07:22:51;;;;;;;20.10;10.37;;;;;;;-2.54;100.00;101647.09;1614641;85;21041;-69
2022/03/17 07:25:19;;;;;;;36.83;10.17;;;;;;;-2.53;100.00;101655.93;1642908;87;21075;-68
2022/03/17 07:27:48;;;;;;;25.07;10.60;;;;;;;-2.38;100.00;101642.64;1644251;86;21103;-71
2022/03/17 07:30:20;;;;;;;33.50;19.70;;;;;;;-2.13;100.00;101647.55;1630359;87;21084;-68
2022/03/17 07:32:48;;;;;;;28.70;15.50;;;;;;;-1.89;100.00;101645.02;1629984;87;21076;-69
2022/03/17 07:35:17;;;;;;;31.53;16.57;;;;;;;-1.65;100.00;101656.55;1642115;86;21071;-69
2022/03/17 07:37:45;;;;;;;28.80;13.37;;;;;;;-1.49;100.00;101652.05;1642674;87;21072;-69
2022/03/17 07:40:15;;;;;;;26.20;13.60;;;;;;;-1.47;100.00;101645.78;1642342;86;21111;-69
2022/03/17 07:42:44;;;;;;;23.97;10.63;;;;;;;-1.47;100.00;101652.41;1629755;87;21096;-70
2022/03/17 07:45:22;;;;;;;55.47;26.27;;;;;;;-1.44;100.00;101652.28;1640435;87;21115;-69
2022/03/17 07:48:07;;;;;;;30.20;12.13;;;;;;;-1.19;100.00;101647.42;1608676;88;21574;-70
2022/03/17 07:50:35;;;;;;;19.00;8.67;;;;;;;-1.22;100.00;101647.08;1608435;88;21042;-69
2022/03/17 07:53:03;;;;;;;21.63;10.70;;;;;;;-1.21;100.00;101638.65;1634463;87;21102;-68
2022/03/17 07:55:30;;;;;;;23.93;10.87;;;;;;;-1.22;100.00;101636.91;1640112;87;20990;-68
2022/03/17 07:57:58;;;;;;;67.50;30.37;;;;;;;-1.16;100.00;101636.22;1633638;87;21056;-67
2022/03/17 08:00:26;;;;;;;32.70;14.50;;;;;;;-0.87;100.00;101631.59;1610327;87;21041;-69
2022/03/17 08:02:54;;;;;;;38.97;19.23;;;;;;;-0.80;100.00;101629.14;1617460;88;21114;-69
2022/03/17 08:05:22;;;;;;;43.13;24.27;;;;;;;-0.75;100.00;101626.29;1610100;87;21049;-68
2022/03/17 08:07:49;;;;;;;46.53;22.37;;;;;;;-0.48;100.00;101634.09;1595153;88;21055;-69
2022/03/17 08:21:18;;;;;;;41.80;18.87;;;;;;;-0.43;100.00;101624.16;1667765;83;76621;-75
2022/03/17 08:23:46;;;;;;;70.10;30.23;;;;;;;-0.06;100.00;101627.50;1765027;81;20998;-74
2022/03/17 08:26:14;;;;;;;37.70;18.20;;;;;;;0.13;100.00;101626.27;1772116;81;21592;-75
2022/03/17 08:28:42;;;;;;;45.80;25.63;;;;;;;0.14;100.00;101621.80;1768171;81;21013;-78
2022/03/17 08:31:09;;;;;;;29.67;10.63;;;;;;;0.26;100.00;101617.77;1799567;80;21044;-74
2022/03/17 08:33:37;;;;;;;31.27;12.60;;;;;;;0.34;100.00;101619.16;1799709;80;21478;-75
2022/03/17 08:36:08;;;;;;;63.93;33.40;;;;;;;0.49;100.00;101610.10;1799208;80;20966;-75
2022/03/17 08:38:36;;;;;;;41.30;21.27;;;;;;;0.68;100.00;101616.34;1799228;80;21061;-76
2022/03/17 08:41:02;;;;;;;23.03;10.03;;;;;;;1.03;100.00;101619.67;1790883;80;20989;-76
2022/03/17 08:43:29;;;;;;;39.50;19.77;;;;;;;1.28;100.00;101612.25;1780530;80;21541;-77
2022/03/17 08:51:30;;;;;;;46.13;21.80;;;;;;;1.93;100.00;101600.23;1769625;80;20922;-76
2022/03/17 08:53:57;;;;;;;40.07;21.83;;;;;;;2.13;100.00;101605.91;1784812;80;20990;-77
2022/03/17 08:56:23;;;;;;;40.07;18.90;;;;;;;2.09;100.00;101617.22;1779994;80;20940;-75
2022/03/17 08:58:58;;;;;;;35.30;20.40;;;;;;;2.07;98.42;101605.28;1767096;81;21039;-75
2022/03/17 09:01:27;;;;;;;32.23;14.03;;;;;;;1.83;96.48;101610.52;1765915;81;21003;-78
2022/03/17 09:03:53;;;;;;;28.63;14.13;;;;;;;1.61;95.55;101613.36;1766681;80;21042;-79
2022/03/17 09:06:22;;;;;;;19.30;8.87;;;;;;;1.43;95.39;101610.64;1767138;81;21046;-79
2022/03/17 09:08:50;;;;;;;20.90;9.87;;;;;;;1.41;96.63;101609.00;1766939;81;21074;-79
2022/03/17 09:11:17;;;;;;;29.27;14.73;;;;;;;1.46;97.02;101604.31;1767097;81;21062;-79
2022/03/17 09:13:44;;;;;;;37.87;13.73;;;;;;;1.54;96.90;101601.27;1766353;81;21078;-77
2022/03/17 09:16:11;;;;;;;29.93;16.33;;;;;;;1.73;98.26;101596.75;1795813;80;21006;-79
2022/03/17 09:18:42;;;;;;;30.67;16.37;;;;;;;1.82;96.94;101599.44;1799526;80;21033;-79
2022/03/17 09:21:09;;;;;;;14.97;6.87;;;;;;;1.99;96.69;101583.45;1793510;80;21061;-79
2022/03/17 09:23:38;;;;;;;28.80;15.47;;;;;;;2.21;96.58;101585.02;1768815;80;21014;-79
2022/03/17 09:26:05;;;;;;;37.00;15.47;;;;;;;2.50;96.42;101586.17;1752544;82;20984;-80
2022/03/17 09:28:32;;;;;;;23.53;9.47;;;;;;;2.66;92.32;101584.89;1752145;82;21072;-78
2022/03/17 09:30:59;;;;;;;37.73;14.37;;;;;;;2.75;90.99;101572.84;1752210;82;21031;-79
2022/03/17 09:33:26;;;;;;;21.37;8.80;;;;;;;2.80;90.24;101587.67;1752329;82;21024;-78
2022/03/17 09:35:56;;;;;;;40.53;20.23;;;;;;;2.95;89.35;101582.44;1751930;82;21000;-79
2022/03/17 09:38:24;;;;;;;27.03;11.83;;;;;;;3.02;87.75;101582.48;1752637;82;21027;-78
2022/03/17 09:40:50;;;;;;;19.27;7.00;;;;;;;3.06;88.00;101580.50;1752019;81;20936;-79
2022/03/17 09:43:18;;;;;;;20.23;9.17;;;;;;;3.04;84.39;101578.77;1762656;81;21014;-76
2022/03/17 09:45:56;;;;;;;17.23;6.50;;;;;;;2.80;84.54;101571.64;1759248;81;21035;-77
2022/03/17 09:48:24;;;;;;;15.17;6.90;;;;;;;2.76;84.52;101575.44;1752183;82;21063;-78
2022/03/17 09:50:56;;;;;;;31.07;9.37;;;;;;;2.52;84.32;101578.09;1752194;82;20992;-75
2022/03/17 09:53:24;;;;;;;31.87;9.18;;;;;;;2.68;87.25;101583.47;1727813;82;21032;-78
2022/03/17 09:55:51;;;;;;;18.37;6.87;;;;;;;2.82;85.17;101587.11;1751885;82;21015;-76
2022/03/17 09:58:19;;;;;;;21.67;8.40;;;;;;;2.58;82.62;101578.59;1727128;82;21529;-77
2022/03/17 10:00:49;;;;;;;20.33;9.50;;;;;;;2.31;84.14;101586.75;1727214;82;21047;-78
2022/03/17 10:03:18;;;;;;;16.57;8.23;;;;;;;2.41;86.60;101583.52;1753051;81;20988;-77
2022/03/17 10:05:46;;;;;;;23.07;8.10;;;;;;;2.35;84.69;101594.98;1760328;80;21016;-74
2022/03/17 10:08:15;;;;;;;26.60;7.53;;;;;;;1.98;83.25;101584.86;1751813;82;21051;-76
2022/03/17 10:10:42;;;;;;;18.70;7.53;;;;;;;1.72;85.02;101593.72;1751954;82;21016;-75
2022/03/17 10:13:17;;;;;;;19.53;9.43;;;;;;;1.65;86.52;101594.95;1751657;82;21543;-75
2022/03/17 10:16:07;;;;;;;23.33;11.13;;;;;;;1.43;86.45;101585.31;1750779;82;21031;-80
2022/03/17 10:18:37;;;;;;;25.77;11.83;;;;;;;1.47;90.16;101590.91;1752312;81;21035;-77
2022/03/17 10:21:24;;;;;;;37.03;15.77;;;;;;;1.81;92.36;101585.73;1760628;81;20999;-70
2022/03/17 10:23:59;;;;;;;42.97;23.60;;;;;;;1.93;92.51;101589.11;1736586;83;21088;-70
2022/03/17 10:26:49;;;;;;;71.43;39.40;;;;;;;1.95;90.78;101589.89;1750305;82;21046;-69
2022/03/17 10:29:22;;;;;;;52.83;25.37;;;;;;;1.93;90.38;101592.23;1754062;81;21500;-69
2022/03/17 10:32:05;;;;;;;46.68;20.65;;;;;;;1.94;89.84;101590.82;1724998;82;21026;-68
2022/03/17 10:34:47;;;;;;;19.65;8.83;;;;;;;1.90;88.03;101587.45;1713109;84;21514;-66
2022/03/17 10:37:19;;;;;;;42.43;9.17;;;;;;;1.93;89.39;101581.11;1712072;84;20982;-67
2022/03/17 10:39:48;;;;;;;14.60;5.90;;;;;;;2.10;89.81;101582.90;1709798;84;20982;-67
2022/03/17 10:42:30;;;;;;;34.70;7.53;;;;;;;2.16;89.86;101573.26;1707763;82;21543;-68
2022/03/17 10:45:05;;;;;;;19.20;5.40;;;;;;;2.28;89.09;101575.74;1709916;82;20966;-68
2022/03/17 10:47:35;;;;;;;14.33;5.37;;;;;;;2.37;87.13;101570.39;1737785;81;21024;-68
2022/03/17 10:50:17;;;;;;;24.93;7.50;;;;;;;2.30;85.24;101566.33;1667760;86;21539;-66
2022/03/17 10:52:58;;;;;;;23.97;7.60;;;;;;;2.27;86.53;101572.22;1666505;86;21038;-69
2022/03/17 10:55:28;;;;;;;24.40;7.40;;;;;;;2.20;85.93;101575.30;1666830;85;21495;-66
2022/03/17 10:58:13;;;;;;;21.30;6.43;;;;;;;2.04;87.01;101573.89;1666277;85;21026;-70
2022/03/17 11:00:53;;;;;;;20.17;6.33;;;;;;;1.73;84.60;101577.23;1691950;85;21040;-69
2022/03/17 11:03:21;;;;;;;9.90;5.13;;;;;;;1.51;87.69;101578.30;1690939;85;21000;-68
2022/03/17 11:08:21;;;;;;;21.33;6.60;;;;;;;1.72;91.12;101564.38;1623726;88;21056;-69
2022/03/17 11:10:50;;;;;;;14.03;6.03;;;;;;;1.63;90.29;101571.03;1567421;90;21109;-67
2022/03/17 11:13:19;;;;;;;16.80;6.20;;;;;;;1.47;89.93;101577.59;1572017;90;21093;-68
2022/03/17 11:15:50;;;;;;;18.50;6.73;;;;;;;1.39;91.04;101577.08;1570310;91;21089;-68
2022/03/17 11:18:20;;;;;;;22.17;8.40;;;;;;;1.41;92.26;101568.54;1558230;91;21681;-68
2022/03/17 11:20:49;;;;;;;49.67;15.47;;;;;;;1.42;93.32;101578.75;1524537;94;21117;-67
2022/03/17 11:23:22;;;;;;;57.17;17.03;;;;;;;1.51;94.89;101569.82;1547776;91;21086;-67
2022/03/17 11:25:58;;;;;;;41.35;12.58;;;;;;;1.42;92.50;101567.61;1557975;91;21290;-67
2022/03/17 11:28:37;;;;;;;20.07;6.70;;;;;;;1.38;93.38;101574.04;1570174;91;21122;-69
2022/03/17 11:31:08;;;;;;;22.53;9.23;;;;;;;1.56;93.50;101574.94;1555811;91;21058;-74
2022/03/17 11:33:44;;;;;;;33.30;15.43;;;;;;;1.75;93.13;101566.87;1575693;91;21626;-74
2022/03/17 11:36:21;;;;;;;19.57;7.53;;;;;;;1.94;93.93;101565.95;1569959;91;21100;-74
2022/03/17 11:38:55;;;;;;;33.87;13.63;;;;;;;2.07;92.82;101568.38;1574854;91;21136;-75
2022/03/17 11:41:23;;;;;;;29.60;11.20;;;;;;;2.09;89.77;101559.36;1557051;91;21620;-74
2022/03/17 11:43:57;;;;;;;21.10;7.17;;;;;;;2.14;88.31;101566.26;1576367;91;21151;-75
2022/03/17 11:46:42;;;;;;;14.23;5.85;;;;;;;2.21;86.96;101571.22;1582092;89;21061;-69
2022/03/17 11:49:21;;;;;;;20.00;7.57;;;;;;;2.22;84.40;101563.59;1596802;89;21188;-68
2022/03/17 11:52:00;;;;;;;12.37;5.13;;;;;;;2.04;84.05;101568.55;1625166;87;21581;-68
2022/03/17 11:54:30;;;;;;;13.23;5.30;;;;;;;1.89;82.86;101564.40;1598398;88;21212;-67